Time;durP1;ratioP1;P1;durP2;ratioP2;P2;SDS_P1;SDS_P2;PMS_P1;PMS_P2;Temp;Humidity;BMP_temperature;BMP_pressure;BME280_temperature;BME280_humidity;BME280_pressure;Samples;Min_cycle;Max_cycle;Signal;HPM_P1;HPM_P2
2023/01/25 00:01:14;;;;;;;21.30;11.20;;;;;;;0.21;81.62;98990.10;108870;1251;95590;-78
2023/01/25 00:03:43;;;;;;;22.60;12.50;;;;;;;0.21;81.74;98991.70;108859;1251;96036;-78
2023/01/25 00:06:13;;;;;;;20.70;12.20;;;;;;;0.22;81.80;98990.55;108898;1251;102589;-77
2023/01/25 00:08:42;;;;;;;17.60;10.90;;;;;;;0.23;81.76;98991.38;108844;1251;101097;-77
2023/01/25 00:11:10;;;;;;;15.90;9.70;;;;;;;0.24;81.86;98993.23;108771;1251;100360;-78
2023/01/25 00:13:38;;;;;;;15.80;10.00;;;;;;;0.23;81.85;98988.87;108795;1251;95524;-78
2023/01/25 00:16:06;;;;;;;15.00;9.70;;;;;;;0.23;81.76;98983.23;108892;1251;96060;-78
2023/01/25 00:18:34;;;;;;;15.70;10.70;;;;;;;0.22;81.88;98979.73;108832;1251;103220;-78
2023/01/25 00:21:17;;;;;;;18.20;9.90;;;;;;;0.22;81.76;98971.26;108883;1251;101289;-77
2023/01/25 00:23:47;;;;;;;21.90;12.80;;;;;;;0.19;81.80;98968.96;108609;1251;99614;-77
2023/01/25 00:26:16;;;;;;;23.40;15.60;;;;;;;0.21;81.83;98963.36;108893;1251;95640;-77
2023/01/25 00:28:51;;;;;;;117.70;32.60;;;;;;;0.24;81.87;98959.79;108846;1251;96001;-77
2023/01/25 00:31:50;;;;;;;58.20;19.20;;;;;;;0.24;81.95;98953.19;108833;1251;103558;-77
2023/01/25 00:34:24;;;;;;;40.80;15.60;;;;;;;0.25;81.94;98946.08;108916;1251;101583;-77
2023/01/25 00:37:33;;;;;;;18.50;10.70;;;;;;;0.25;81.96;98945.86;108794;1251;100084;-77
2023/01/25 00:40:01;;;;;;;19.80;11.10;;;;;;;0.26;81.96;98948.49;108833;1251;95583;-77
2023/01/25 00:42:29;;;;;;;19.30;10.70;;;;;;;0.26;81.97;98945.48;108836;1251;96181;-77
2023/01/25 00:44:57;;;;;;;16.30;9.70;;;;;;;0.25;82.07;98941.41;108884;1251;102075;-77
2023/01/25 00:47:25;;;;;;;17.40;10.50;;;;;;;0.26;81.93;98944.58;108726;1250;178500;-78
2023/01/25 00:49:54;;;;;;;23.20;11.80;;;;;;;0.26;82.03;98947.91;108804;1251;99940;-77
2023/01/25 00:52:22;;;;;;;16.30;10.80;;;;;;;0.28;81.94;98952.43;108834;1251;95627;-77
2023/01/25 00:54:50;;;;;;;12.70;8.60;;;;;;;0.24;81.81;98952.16;108864;1251;96017;-77
2023/01/25 00:57:18;;;;;;;20.20;10.90;;;;;;;0.21;81.95;98954.34;108868;1251;103587;-77
2023/01/25 00:59:49;;;;;;;28.80;13.70;;;;;;;0.21;81.98;98953.09;108684;1251;101315;-77
2023/01/25 01:02:17;;;;;;;26.90;12.70;;;;;;;0.23;82.04;98955.62;108674;1251;99959;-78
2023/01/25 01:04:47;;;;;;;32.10;14.60;;;;;;;0.24;82.02;98961.02;108830;1251;95596;-77
2023/01/25 01:07:16;;;;;;;21.50;12.00;;;;;;;0.25;82.00;98962.14;108833;1251;96027;-77
2023/01/25 01:09:44;;;;;;;18.30;11.20;;;;;;;0.28;81.96;98957.38;108858;1250;103161;-77
2023/01/25 01:12:12;;;;;;;16.60;10.10;;;;;;;0.29;81.92;98950.36;108797;1251;101255;-77
2023/01/25 01:14:40;;;;;;;15.40;9.00;;;;;;;0.30;81.92;98953.30;108804;1251;99948;-77
2023/01/25 01:17:08;;;;;;;12.70;8.30;;;;;;;0.31;81.82;98953.26;108808;1251;96080;-77
2023/01/25 01:19:36;;;;;;;20.70;10.60;;;;;;;0.30;81.85;98950.27;108853;1251;96002;-77
2023/01/25 01:22:04;;;;;;;19.60;9.80;;;;;;;0.27;81.80;98944.52;108829;1251;103415;-77
2023/01/25 01:24:32;;;;;;;12.40;8.20;;;;;;;0.24;81.75;98937.98;108852;1251;101010;-77
2023/01/25 01:27:00;;;;;;;16.00;9.80;;;;;;;0.24;81.88;98932.31;108813;1251;100018;-77
2023/01/25 01:29:29;;;;;;;16.00;9.60;;;;;;;0.25;81.80;98923.58;108596;1251;95922;-77
2023/01/25 01:31:57;;;;;;;12.40;8.10;;;;;;;0.26;81.86;98917.13;108876;1251;96022;-77
2023/01/25 01:34:25;;;;;;;15.00;7.90;;;;;;;0.24;81.82;98915.14;108845;1250;103438;-77
2023/01/25 01:36:53;;;;;;;28.30;12.40;;;;;;;0.22;81.87;98916.19;108882;1251;101728;-77
2023/01/25 01:39:21;;;;;;;17.70;10.10;;;;;;;0.21;81.89;98916.08;108788;1251;99967;-77
2023/01/25 01:41:49;;;;;;;21.60;11.40;;;;;;;0.20;81.88;98908.52;108492;1252;96562;-77
2023/01/25 01:44:21;;;;;;;21.20;12.00;;;;;;;0.21;81.97;98899.25;108741;1252;96019;-77
2023/01/25 01:46:55;;;;;;;12.80;7.40;;;;;;;0.24;81.85;98899.42;108762;1252;112118;-77
2023/01/25 01:49:26;;;;;;;15.10;8.80;;;;;;;0.25;81.95;98894.20;108728;1252;100535;-77
2023/01/25 01:52:12;;;;;;;15.10;8.80;;;;;;;0.22;81.88;98892.11;108572;1253;99952;-77
2023/01/25 01:54:46;;;;;;;16.00;9.40;;;;;;;0.20;81.92;98890.48;108609;1253;95632;-77
2023/01/25 01:57:38;;;;;;;13.70;8.70;;;;;;;0.21;81.99;98883.36;108721;1253;96098;-77
2023/01/25 02:00:13;;;;;;;15.40;9.60;;;;;;;0.21;81.97;98876.10;108789;1252;103668;-77
2023/01/25 02:02:42;;;;;;;14.20;9.30;;;;;;;0.20;81.95;98872.25;108725;1252;101305;-77
2023/01/25 02:05:20;;;;;;;17.10;10.20;;;;;;;0.18;81.91;98874.85;108723;1252;101980;-77
2023/01/25 02:07:51;;;;;;;24.40;12.60;;;;;;;0.17;81.84;98873.30;108750;1253;95660;-77
2023/01/25 02:10:21;;;;;;;20.30;11.90;;;;;;;0.18;81.91;98869.53;108763;1252;95587;-77
2023/01/25 02:12:51;;;;;;;21.40;12.40;;;;;;;0.21;81.91;98860.50;108801;1253;102737;-77
2023/01/25 02:15:19;;;;;;;25.30;11.90;;;;;;;0.22;81.90;98852.13;108828;1252;101664;-77
2023/01/25 02:17:49;;;;;;;38.00;17.70;;;;;;;0.19;81.77;98853.70;108699;1252;100091;-77
2023/01/25 02:20:34;;;;;;;33.00;16.00;;;;;;;0.19;81.92;98847.69;108720;1251;95578;-77
2023/01/25 02:23:20;;;;;;;28.60;14.40;;;;;;;0.21;81.94;98843.16;108743;1253;97013;-77
2023/01/25 02:25:49;;;;;;;21.10;12.00;;;;;;;0.23;81.93;98841.05;108791;1252;103439;-77
2023/01/25 02:28:29;;;;;;;26.60;14.30;;;;;;;0.25;81.99;98838.92;108617;1253;101490;-77
2023/01/25 02:30:57;;;;;;;21.30;13.20;;;;;;;0.26;81.92;98840.07;108718;1253;100163;-77
2023/01/25 02:33:27;;;;;;;45.00;20.30;;;;;;;0.27;81.85;98840.88;108742;1253;95586;-77
2023/01/25 02:36:16;;;;;;;41.00;18.00;;;;;;;0.29;81.96;98842.74;108308;1254;96057;-77
2023/01/25 02:38:54;;;;;;;36.90;17.00;;;;;;;0.30;81.88;98842.30;108810;1253;102436;-76
2023/01/25 02:41:33;;;;;;;38.20;18.30;;;;;;;0.31;81.84;98840.95;108851;1251;101372;-77
2023/01/25 02:44:28;;;;;;;27.50;15.30;;;;;;;0.34;81.88;98840.24;108814;1251;99955;-77
2023/01/25 02:46:56;;;;;;;20.00;11.10;;;;;;;0.35;81.82;98843.90;108180;1259;95708;-77
2023/01/25 02:49:25;;;;;;;18.10;10.70;;;;;;;0.30;81.75;98842.63;108087;1259;96560;-77
2023/01/25 02:51:56;;;;;;;16.50;9.90;;;;;;;0.27;81.78;98846.03;108260;1259;103545;-77
2023/01/25 02:54:26;;;;;;;11.30;7.70;;;;;;;0.27;81.85;98847.27;108137;1259;101350;-77
2023/01/25 02:56:54;;;;;;;12.90;7.40;;;;;;;0.28;81.85;98841.34;108215;1258;99939;-77
2023/01/25 02:59:23;;;;;;;21.00;10.60;;;;;;;0.28;81.85;98843.70;108066;1259;95858;-77
2023/01/25 03:01:51;;;;;;;17.50;9.60;;;;;;;0.28;81.74;98851.65;108248;1259;96159;-77
2023/01/25 03:04:19;;;;;;;15.40;9.40;;;;;;;0.29;81.79;98856.68;108245;1259;103671;-77
2023/01/25 03:06:47;;;;;;;15.40;9.10;;;;;;;0.31;81.82;98853.21;108214;1259;101463;-77
2023/01/25 03:09:15;;;;;;;12.30;8.00;;;;;;;0.33;81.76;98848.45;108222;1259;99003;-76
2023/01/25 03:11:43;;;;;;;14.00;7.90;;;;;;;0.33;81.69;98841.36;108203;1259;95947;-77
2023/01/25 03:14:11;;;;;;;9.80;6.60;;;;;;;0.31;81.57;98840.61;108256;1259;96074;-77
2023/01/25 03:16:39;;;;;;;19.20;10.10;;;;;;;0.28;81.43;98839.26;108220;1259;103557;-77
2023/01/25 03:19:07;;;;;;;21.30;12.10;;;;;;;0.28;81.47;98838.05;108220;1259;101322;-77
2023/01/25 03:21:36;;;;;;;20.70;12.10;;;;;;;0.29;81.57;98830.29;108224;1259;99863;-77
2023/01/25 03:24:04;;;;;;;18.60;11.30;;;;;;;0.31;81.67;98827.88;108409;1252;95889;-77
2023/01/25 03:27:09;;;;;;;16.80;10.40;;;;;;;0.32;81.65;98827.83;108832;1251;96051;-76
2023/01/25 03:29:20;;;;;;;15.60;10.10;;;;;;;0.32;81.66;98825.52;108889;1251;103465;-77
2023/01/25 03:31:48;;;;;;;24.00;13.60;;;;;;;0.31;81.58;98828.95;108866;1251;101351;-77
2023/01/25 03:34:16;;;;;;;24.90;14.70;;;;;;;0.31;81.59;98829.14;108863;1251;99554;-77
2023/01/25 03:36:44;;;;;;;32.70;15.60;;;;;;;0.31;81.70;98829.08;108832;1251;95541;-77
2023/01/25 03:39:12;;;;;;;29.90;16.70;;;;;;;0.31;81.72;98828.54;108547;1252;96182;-77
2023/01/25 03:41:41;;;;;;;33.20;20.30;;;;;;;0.33;81.72;98826.30;108665;1250;103911;-76
2023/01/25 03:44:10;;;;;;;68.50;27.20;;;;;;;0.36;81.74;98822.73;108876;1251;101174;-77
2023/01/25 03:46:39;;;;;;;81.80;27.60;;;;;;;0.38;81.58;98818.34;108552;1253;99982;-77
2023/01/25 03:49:07;;;;;;;68.40;25.30;;;;;;;0.39;81.71;98814.22;108553;1252;95645;-76
2023/01/25 03:51:35;;;;;;;36.60;15.60;;;;;;;0.40;81.57;98816.11;108902;1251;96398;-77
2023/01/25 03:54:04;;;;;;;23.70;12.40;;;;;;;0.39;81.68;98815.77;108873;1251;103430;-77
2023/01/25 03:56:33;;;;;;;13.40;8.20;;;;;;;0.38;81.50;98815.13;108876;1251;101497;-77
2023/01/25 03:59:01;;;;;;;10.50;7.60;;;;;;;0.36;81.44;98820.06;108842;1251;108432;-77
2023/01/25 04:01:29;;;;;;;15.40;8.50;;;;;;;0.35;81.26;98823.83;108799;1251;95617;-77
2023/01/25 04:03:57;;;;;;;16.90;9.10;;;;;;;0.35;81.28;98822.44;108860;1251;96030;-77
2023/01/25 04:06:25;;;;;;;12.10;6.70;;;;;;;0.36;81.28;98824.14;108870;1250;103740;-77
2023/01/25 04:08:53;;;;;;;12.50;7.50;;;;;;;0.35;81.32;98824.23;108649;1251;100626;-76
2023/01/25 04:11:21;;;;;;;11.40;7.40;;;;;;;0.34;81.40;98821.46;108837;1251;98961;-77
2023/01/25 04:13:49;;;;;;;10.30;6.70;;;;;;;0.34;81.33;98825.71;108799;1251;95695;-76
2023/01/25 04:16:17;;;;;;;11.40;6.60;;;;;;;0.35;81.34;98824.23;108865;1251;96014;-76
2023/01/25 04:18:45;;;;;;;24.60;11.30;;;;;;;0.35;81.26;98825.84;108845;1251;103744;-77
2023/01/25 04:21:13;;;;;;;41.20;15.10;;;;;;;0.35;81.28;98824.44;108833;1251;101463;-77
2023/01/25 04:23:41;;;;;;;19.00;8.90;;;;;;;0.33;81.15;98823.09;108497;1252;100072;-77
2023/01/25 04:26:11;;;;;;;13.30;7.40;;;;;;;0.31;81.13;98820.04;108801;1251;95815;-77
2023/01/25 04:28:39;;;;;;;11.90;8.40;;;;;;;0.31;81.14;98816.56;108566;1251;96072;-76
2023/01/25 04:31:07;;;;;;;11.90;7.50;;;;;;;0.30;81.07;98814.14;108531;1250;102405;-77
2023/01/25 04:33:35;;;;;;;12.30;6.80;;;;;;;0.31;81.01;98814.27;108861;1251;101173;-77
2023/01/25 04:36:04;;;;;;;20.80;9.20;;;;;;;0.30;80.90;98809.57;108800;1251;99935;-76
2023/01/25 04:38:32;;;;;;;13.40;7.00;;;;;;;0.29;80.93;98806.23;108631;1251;95809;-77
2023/01/25 04:41:00;;;;;;;36.10;14.30;;;;;;;0.30;80.90;98801.39;108840;1251;96051;-76
2023/01/25 04:43:28;;;;;;;26.40;12.40;;;;;;;0.31;80.94;98797.80;108536;1251;102237;-76
2023/01/25 04:45:57;;;;;;;14.90;7.90;;;;;;;0.32;80.88;98800.39;108849;1251;100016;-77
2023/01/25 04:48:25;;;;;;;12.00;6.50;;;;;;;0.33;80.94;98795.69;108852;1251;100284;-77
2023/01/25 04:50:53;;;;;;;12.90;7.20;;;;;;;0.34;80.97;98796.89;108625;1251;95931;-77
2023/01/25 04:53:21;;;;;;;11.90;6.40;;;;;;;0.32;80.77;98794.14;108864;1250;96069;-77
2023/01/25 04:55:49;;;;;;;10.90;6.80;;;;;;;0.30;80.65;98791.79;108800;1251;102142;-76
2023/01/25 04:58:18;;;;;;;12.80;7.00;;;;;;;0.31;80.80;98787.16;108827;1251;100083;-77
2023/01/25 05:00:49;;;;;;;10.80;6.70;;;;;;;0.31;80.80;98784.30;108837;1251;99079;-77
2023/01/25 05:03:17;;;;;;;10.70;6.40;;;;;;;0.31;80.58;98782.20;108816;1251;95609;-77
2023/01/25 05:05:48;;;;;;;9.80;5.80;;;;;;;0.31;80.50;98781.11;108853;1251;96047;-77
2023/01/25 05:08:16;;;;;;;11.40;6.30;;;;;;;0.31;80.59;98780.98;108861;1251;103411;-77
2023/01/25 05:10:45;;;;;;;13.30;7.20;;;;;;;0.30;80.63;98783.48;108885;1251;109803;-76
2023/01/25 05:13:13;;;;;;;10.00;6.30;;;;;;;0.31;80.49;98780.24;108842;1251;99946;-77
2023/01/25 05:15:41;;;;;;;8.90;6.10;;;;;;;0.30;80.47;98780.63;108798;1251;95609;-77
2023/01/25 05:18:09;;;;;;;10.60;6.50;;;;;;;0.31;80.60;98781.86;108865;1251;96055;-77
2023/01/25 05:20:37;;;;;;;11.20;6.40;;;;;;;0.31;80.63;98781.14;108845;1250;103401;-77
2023/01/25 05:23:05;;;;;;;11.00;6.90;;;;;;;0.32;80.63;98781.22;108837;1250;101368;-77
2023/01/25 05:28:19;;;;;;;10.50;5.70;;;;;;;0.32;80.59;98776.97;108681;1251;95647;-76
2023/01/25 05:30:47;;;;;;;9.90;5.70;;;;;;;0.32;80.50;98778.90;108873;1251;96013;-76
2023/01/25 05:33:15;;;;;;;9.30;5.60;;;;;;;0.30;80.58;98779.05;108836;1251;103614;-76
2023/01/25 05:35:43;;;;;;;10.30;6.60;;;;;;;0.30;80.49;98779.42;108878;1251;101399;-76
2023/01/25 05:38:11;;;;;;;13.50;6.70;;;;;;;0.31;80.59;98776.31;108791;1254;100095;-76
2023/01/25 05:40:39;;;;;;;9.40;6.00;;;;;;;0.33;80.45;98775.52;108761;1251;95811;-77
2023/01/25 05:43:08;;;;;;;10.00;6.10;;;;;;;0.34;80.44;98772.95;108832;1251;96057;-76
2023/01/25 05:45:36;;;;;;;10.20;6.20;;;;;;;0.34;80.45;98773.83;108853;1251;102410;-76
2023/01/25 05:48:05;;;;;;;9.50;6.10;;;;;;;0.33;80.32;98775.46;108942;1251;101565;-76
2023/01/25 05:50:33;;;;;;;7.70;5.60;;;;;;;0.33;80.48;98773.88;108804;1251;98608;-76
2023/01/25 05:53:01;;;;;;;9.10;5.70;;;;;;;0.34;80.30;98776.12;108818;1251;95556;-76
2023/01/25 05:55:29;;;;;;;12.40;7.80;;;;;;;0.35;80.38;98773.95;108700;1251;95793;-76
2023/01/25 05:57:57;;;;;;;13.30;7.70;;;;;;;0.35;80.27;98772.63;108854;1251;103452;-76
2023/01/25 06:00:28;;;;;;;13.50;7.80;;;;;;;0.38;80.24;98777.27;108851;1251;101271;-76
2023/01/25 06:02:56;;;;;;;12.40;7.80;;;;;;;0.38;80.23;98776.02;108824;1251;99981;-76
2023/01/25 06:05:24;;;;;;;11.60;7.40;;;;;;;0.38;80.17;98774.80;108800;1251;95572;-76
2023/01/25 06:07:52;;;;;;;12.70;7.70;;;;;;;0.37;80.29;98774.10;108821;1251;95996;-76
2023/01/25 06:10:20;;;;;;;8.20;5.30;;;;;;;0.37;80.09;98769.01;108860;1251;103394;-76
2023/01/25 06:12:48;;;;;;;8.60;5.90;;;;;;;0.36;80.10;98768.50;108565;1251;101731;-76
2023/01/25 06:15:16;;;;;;;10.30;6.30;;;;;;;0.36;80.09;98769.95;108487;1253;100043;-76
2023/01/25 06:17:45;;;;;;;7.80;5.50;;;;;;;0.36;80.10;98769.59;108659;1251;95632;-76
2023/01/25 06:20:13;;;;;;;7.50;5.60;;;;;;;0.37;80.23;98768.27;108834;1251;96020;-76
2023/01/25 06:22:41;;;;;;;7.50;5.10;;;;;;;0.37;80.17;98764.36;108832;1251;103523;-76
2023/01/25 06:25:09;;;;;;;7.30;5.40;;;;;;;0.38;80.17;98767.20;108830;1251;101407;-76
2023/01/25 06:27:37;;;;;;;6.10;4.60;;;;;;;0.38;80.15;98766.47;108849;1251;99893;-77
2023/01/25 06:30:07;;;;;;;7.00;4.80;;;;;;;0.39;80.06;98769.40;108735;1251;95660;-76
2023/01/25 06:32:35;;;;;;;8.50;5.40;;;;;;;0.39;79.97;98770.30;108906;1251;95986;-76
2023/01/25 06:35:03;;;;;;;9.60;7.10;;;;;;;0.39;79.96;98768.34;108692;1251;103204;-76
2023/01/25 06:37:31;;;;;;;14.00;9.10;;;;;;;0.40;80.10;98766.51;108842;1251;101194;-76
2023/01/25 06:39:59;;;;;;;15.20;10.00;;;;;;;0.42;80.07;98767.80;108760;1252;100064;-76
2023/01/25 06:42:27;;;;;;;14.80;9.00;;;;;;;0.42;79.94;98764.91;108866;1251;95579;-76
2023/01/25 06:44:55;;;;;;;14.00;9.40;;;;;;;0.42;79.87;98766.71;108833;1251;96034;-76
2023/01/25 06:47:23;;;;;;;12.50;8.20;;;;;;;0.41;79.89;98763.74;108821;1251;103706;-76
2023/01/25 06:49:51;;;;;;;10.70;6.40;;;;;;;0.41;79.73;98760.39;108865;1251;101603;-77
2023/01/25 06:52:19;;;;;;;9.80;6.40;;;;;;;0.41;79.58;98757.36;108811;1251;100149;-76
2023/01/25 06:54:48;;;;;;;12.20;8.40;;;;;;;0.42;79.44;98756.11;108543;1252;95994;-76
2023/01/25 06:57:16;;;;;;;16.00;9.30;;;;;;;0.43;79.53;98754.08;108492;1252;96049;-76
2023/01/25 06:59:44;;;;;;;11.10;8.30;;;;;;;0.43;79.53;98752.60;108831;1251;103798;-76
2023/01/25 07:02:16;;;;;;;7.30;4.90;;;;;;;0.45;79.49;98747.91;108868;1251;101107;-77
2023/01/25 07:04:44;;;;;;;;;;;;;;;0.46;79.39;98742.52;108832;1251;99422;-76
2023/01/25 07:07:12;;;;;;;5.70;4.30;;;;;;;0.47;79.54;98737.86;108811;1251;95574;-76
2023/01/25 07:09:40;;;;;;;9.90;5.20;;;;;;;0.49;79.37;98734.83;108811;1252;96126;-76
2023/01/25 07:12:09;;;;;;;9.50;5.80;;;;;;;0.49;79.32;98734.13;108454;1253;103748;-76
2023/01/25 07:14:37;;;;;;;11.30;7.10;;;;;;;0.51;79.40;98738.75;108717;1253;101529;-76
2023/01/25 07:17:05;;;;;;;18.90;8.50;;;;;;;0.53;79.54;98737.67;108735;1252;100191;-76
2023/01/25 07:19:33;;;;;;;15.60;9.10;;;;;;;0.55;79.38;98737.20;108539;1251;95814;-76
2023/01/25 07:22:02;;;;;;;18.60;10.80;;;;;;;0.58;79.34;98740.19;108762;1252;95993;-76
2023/01/25 07:24:30;;;;;;;29.00;17.30;;;;;;;0.62;79.39;98739.86;108533;1252;103531;-76
2023/01/25 07:26:58;;;;;;;27.00;16.10;;;;;;;0.63;79.30;98737.11;108735;1252;101176;-76
2023/01/25 07:29:27;;;;;;;21.00;13.20;;;;;;;0.62;79.17;98735.59;108756;1252;99217;-76
2023/01/25 07:31:56;;;;;;;18.20;11.90;;;;;;;0.63;79.24;98737.65;108805;1251;95582;-76
2023/01/25 07:34:24;;;;;;;20.20;11.80;;;;;;;0.66;79.23;98735.27;108853;1251;96061;-76
2023/01/25 07:36:52;;;;;;;21.70;12.50;;;;;;;0.67;79.13;98736.27;108510;1254;103392;-76
2023/01/25 07:39:20;;;;;;;18.60;12.00;;;;;;;0.68;79.21;98738.33;108801;1252;101331;-76
2023/01/25 07:41:48;;;;;;;19.30;13.30;;;;;;;0.70;79.34;98737.08;108834;1251;100022;-76
2023/01/25 07:44:16;;;;;;;17.50;11.60;;;;;;;0.70;79.27;98738.14;108777;1251;95540;-76
2023/01/25 07:46:45;;;;;;;14.30;10.00;;;;;;;0.72;79.31;98740.31;108925;1251;96112;-76
2023/01/25 07:49:13;;;;;;;17.80;11.40;;;;;;;0.73;79.35;98739.51;108554;1250;103438;-76
2023/01/25 07:51:41;;;;;;;19.00;11.20;;;;;;;0.71;79.28;98736.63;108830;1250;100328;-76
2023/01/25 07:54:11;;;;;;;16.60;10.50;;;;;;;0.73;79.39;98725.35;108712;1252;100039;-76
2023/01/25 07:56:39;;;;;;;13.60;9.10;;;;;;;0.77;79.41;98722.01;108730;1252;95790;-76
2023/01/25 07:59:09;;;;;;;11.70;7.80;;;;;;;0.80;79.18;98716.87;108716;1252;96029;-76
2023/01/25 08:01:40;;;;;;;10.00;6.60;;;;;;;0.80;79.04;98712.61;108781;1256;103561;-76
2023/01/25 08:04:09;;;;;;;9.50;5.80;;;;;;;0.79;78.80;98709.86;108500;1254;101018;-76
2023/01/25 08:06:38;;;;;;;10.00;6.60;;;;;;;0.78;78.86;98706.86;108783;1253;99876;-77
2023/01/25 08:09:11;;;;;;;11.00;6.00;;;;;;;0.82;78.94;98707.84;108700;1254;95618;-76
2023/01/25 08:11:41;;;;;;;11.00;6.80;;;;;;;0.85;78.99;98703.70;108788;1252;95983;-77
2023/01/25 08:14:10;;;;;;;12.40;7.60;;;;;;;0.88;79.08;98700.23;108774;1254;103429;-76
2023/01/25 08:16:38;;;;;;;10.70;6.70;;;;;;;0.90;79.12;98696.34;108810;1250;100354;-76
2023/01/25 08:19:06;;;;;;;11.90;6.60;;;;;;;0.94;79.12;98694.32;108769;1253;100272;-76
2023/01/25 08:21:35;;;;;;;9.70;6.20;;;;;;;0.98;78.98;98693.03;108718;1253;95547;-77
2023/01/25 08:24:06;;;;;;;10.10;5.40;;;;;;;1.03;78.96;98692.00;108620;1253;96030;-77
2023/01/25 08:26:36;;;;;;;10.10;6.50;;;;;;;1.06;78.75;98686.56;108780;1253;103875;-77
2023/01/25 08:29:06;;;;;;;13.10;7.60;;;;;;;1.10;78.63;98678.30;108769;1253;101538;-77
2023/01/25 08:31:35;;;;;;;10.00;6.20;;;;;;;1.13;78.51;98680.41;108718;1251;100112;-77
2023/01/25 08:34:05;;;;;;;10.50;6.70;;;;;;;1.14;78.40;98684.55;108698;1255;95886;-77
2023/01/25 08:36:34;;;;;;;17.40;7.50;;;;;;;1.16;78.36;98682.78;108538;1252;97098;-77
2023/01/25 08:39:06;;;;;;;16.30;8.60;;;;;;;1.20;78.35;98680.20;108844;1251;103085;-77
2023/01/25 08:41:35;;;;;;;18.60;9.00;;;;;;;1.23;78.28;98678.66;108818;1251;101389;-77
2023/01/25 08:44:05;;;;;;;17.90;9.70;;;;;;;1.25;78.07;98676.39;108516;1251;99176;-77
2023/01/25 08:46:34;;;;;;;18.10;10.80;;;;;;;1.27;78.05;98675.86;108819;1251;95593;-77
2023/01/25 08:49:03;;;;;;;24.80;12.50;;;;;;;1.29;77.95;98675.05;108872;1251;96039;-77
2023/01/25 08:51:32;;;;;;;19.70;10.80;;;;;;;1.31;78.03;98675.94;108853;1253;103547;-77
2023/01/25 08:54:08;;;;;;;18.50;10.50;;;;;;;1.35;78.07;98678.58;108901;1251;100294;-77
2023/01/25 08:56:41;;;;;;;19.50;10.20;;;;;;;1.36;77.90;98676.73;108833;1251;99108;-77
2023/01/25 08:59:13;;;;;;;14.70;8.70;;;;;;;1.38;77.83;98673.74;108869;1251;95931;-77
2023/01/25 09:01:41;;;;;;;15.50;8.70;;;;;;;1.40;77.87;98665.06;108821;1251;96420;-77
2023/01/25 09:04:09;;;;;;;16.40;8.50;;;;;;;1.42;77.85;98657.98;108948;1250;103742;-77
2023/01/25 09:06:37;;;;;;;14.00;7.50;;;;;;;1.47;77.79;98657.05;108861;1251;109970;-77
2023/01/25 09:09:07;;;;;;;18.30;7.80;;;;;;;1.53;77.94;98654.64;108638;1251;99921;-77
2023/01/25 09:11:39;;;;;;;14.50;8.70;;;;;;;1.60;77.87;98653.34;108706;1253;95544;-77
2023/01/25 09:14:07;;;;;;;14.70;8.10;;;;;;;1.63;77.89;98654.46;108795;1252;96182;-77
2023/01/25 09:16:35;;;;;;;6.90;5.00;;;;;;;1.66;77.59;98656.02;108830;1252;103471;-77
2023/01/25 09:19:06;;;;;;;7.70;4.40;;;;;;;1.68;77.35;98652.50;108780;1252;101079;-77
2023/01/25 09:21:35;;;;;;;5.70;4.00;;;;;;;1.73;77.37;98653.32;108762;1252;99919;-77
2023/01/25 09:24:04;;;;;;;8.30;4.50;;;;;;;1.79;77.50;98651.73;108713;1254;95560;-77
2023/01/25 09:26:33;;;;;;;6.20;3.90;;;;;;;1.86;77.66;98652.80;108775;1252;96453;-76
2023/01/25 09:29:02;;;;;;;5.70;3.80;;;;;;;1.89;77.18;98656.30;108810;1254;101981;-77
2023/01/25 09:31:30;;;;;;;4.80;3.00;;;;;;;1.89;76.98;98656.44;108796;1253;101470;-77
2023/01/25 09:33:58;;;;;;;7.30;4.30;;;;;;;1.89;76.87;98657.33;108774;1252;99891;-76
2023/01/25 09:36:26;;;;;;;9.70;5.50;;;;;;;1.92;76.76;98651.63;108462;1253;95563;-77
2023/01/25 09:38:56;;;;;;;7.10;4.30;;;;;;;1.94;76.72;98648.23;108791;1254;96073;-77
2023/01/25 09:42:06;;;;;;;11.70;4.50;;;;;;;1.96;76.62;98641.68;108546;1251;103545;-77
2023/01/25 09:44:58;;;;;;;11.70;5.70;;;;;;;1.99;76.35;98640.90;108884;1251;100543;-77
2023/01/25 09:47:26;;;;;;;10.50;6.00;;;;;;;2.00;76.16;98628.17;108839;1251;100157;-77
2023/01/25 09:50:15;;;;;;;19.60;8.70;;;;;;;2.03;76.25;98624.23;108848;1251;95621;-77
2023/01/25 09:53:17;;;;;;;22.20;10.20;;;;;;;2.06;76.17;98617.39;108762;1252;96422;-77
2023/01/25 09:55:52;;;;;;;7.30;2.90;;;;;;;2.08;76.09;98612.79;108788;1253;103167;-77
2023/01/25 09:58:26;;;;;;;5.20;3.60;;;;;;;2.08;75.95;98607.80;108554;1251;101393;-77
2023/01/25 10:01:30;;;;;;;4.60;2.90;;;;;;;2.12;76.02;98599.78;108778;1252;99954;-77
2023/01/25 10:04:24;;;;;;;7.40;4.10;;;;;;;2.16;75.85;98594.12;108243;1259;95683;-77
2023/01/25 10:06:54;;;;;;;6.50;4.10;;;;;;;2.17;75.52;98583.27;108219;1260;96927;-76
2023/01/25 10:09:29;;;;;;;3.90;2.90;;;;;;;2.19;75.54;98577.55;108267;1260;103567;-76
2023/01/25 10:12:03;;;;;;;3.60;2.60;;;;;;;2.22;75.62;98577.17;108268;1259;100574;-76
2023/01/25 10:14:34;;;;;;;5.30;2.80;;;;;;;2.24;75.57;98574.70;108068;1258;99749;-76
2023/01/25 10:17:11;;;;;;;4.80;3.40;;;;;;;2.25;75.47;98568.32;108085;1258;95754;-76
2023/01/25 10:20:03;;;;;;;5.30;3.20;;;;;;;2.28;75.53;98564.91;108177;1258;96580;-76
2023/01/25 10:22:39;;;;;;;5.30;3.30;;;;;;;2.22;75.31;98560.22;108244;1259;103183;-76
2023/01/25 10:25:28;;;;;;;6.60;3.60;;;;;;;2.22;75.36;98559.70;108253;1259;101491;-76
2023/01/25 10:28:09;;;;;;;6.20;3.50;;;;;;;2.23;75.28;98554.09;108237;1258;98894;-76
2023/01/25 10:31:13;;;;;;;2.80;2.20;;;;;;;2.26;75.28;98547.68;108265;1259;96392;-76
2023/01/25 10:33:47;;;;;;;4.10;3.00;;;;;;;2.28;74.97;98544.33;108285;1258;96669;-76
2023/01/25 10:36:17;;;;;;;6.10;3.40;;;;;;;2.28;75.09;98539.15;108253;1258;103107;-76
2023/01/25 10:38:48;;;;;;;3.20;2.60;;;;;;;2.31;75.04;98536.52;108225;1260;100576;-77
2023/01/25 10:41:35;;;;;;;3.70;3.10;;;;;;;2.30;74.70;98531.66;108596;1251;99427;-76
2023/01/25 10:47:00;;;;;;;5.90;3.70;;;;;;;2.13;74.76;98532.08;108723;1251;96025;-76
2023/01/25 10:49:48;;;;;;;5.30;3.50;;;;;;;2.16;74.88;98524.15;108823;1251;103782;-76
2023/01/25 10:52:31;;;;;;;4.90;3.20;;;;;;;2.18;74.78;98522.59;108910;1250;101700;-77
2023/01/25 10:55:14;;;;;;;5.20;3.10;;;;;;;2.17;74.84;98518.72;108801;1251;99786;-78
2023/01/25 10:57:45;;;;;;;5.40;3.40;;;;;;;2.22;74.91;98514.59;108710;1251;95544;-77
2023/01/25 11:00:41;;;;;;;4.80;3.60;;;;;;;2.27;74.82;98510.28;108830;1251;96055;-77
2023/01/25 11:03:22;;;;;;;4.90;3.40;;;;;;;2.28;74.67;98501.63;108863;1251;103598;-77
2023/01/25 11:05:58;;;;;;;6.30;3.70;;;;;;;2.31;74.58;98502.82;108811;1252;101270;-76
2023/01/25 11:08:38;;;;;;;7.90;3.80;;;;;;;2.34;74.62;98502.92;108798;1251;99976;-77
2023/01/25 11:11:34;;;;;;;5.50;3.50;;;;;;;2.37;74.51;98498.58;108725;1252;95640;-76
2023/01/25 11:14:15;;;;;;;7.50;4.20;;;;;;;2.35;74.31;98494.98;108763;1252;96006;-77
2023/01/25 11:16:47;;;;;;;8.60;4.90;;;;;;;2.34;74.27;98491.93;108502;1254;103643;-77
2023/01/25 11:19:28;;;;;;;;;;;;;;;2.32;74.29;98492.20;108763;1252;101410;-76
2023/01/25 11:22:00;;;;;;;6.50;4.60;;;;;;;2.30;74.31;98495.21;108747;1253;98932;-76
2023/01/25 11:24:35;;;;;;;9.10;4.80;;;;;;;2.30;74.42;98486.18;108499;1252;95628;-76
2023/01/25 11:27:23;;;;;;;7.30;4.60;;;;;;;2.30;74.50;98480.52;108797;1254;95989;-77
2023/01/25 11:30:08;;;;;;;8.20;4.40;;;;;;;2.30;74.52;98475.13;108761;1254;102517;-77
2023/01/25 11:32:39;;;;;;;6.30;4.20;;;;;;;2.32;74.44;98467.17;108465;1254;101395;-77
2023/01/25 11:35:24;;;;;;;6.90;4.10;;;;;;;2.35;74.42;98463.20;108732;1251;99921;-76
2023/01/25 11:38:07;;;;;;;7.30;4.20;;;;;;;2.36;74.23;98459.21;108688;1252;95599;-76
2023/01/25 11:40:48;;;;;;;7.40;4.50;;;;;;;2.35;74.24;98447.20;108834;1251;95996;-77
2023/01/25 11:44:09;;;;;;;6.10;4.00;;;;;;;2.31;74.19;98441.29;108737;1254;102720;-76
2023/01/25 11:46:43;;;;;;;6.60;4.60;;;;;;;2.31;74.16;98436.69;108256;1259;100346;-76
2023/01/25 11:49:43;;;;;;;4.90;3.80;;;;;;;2.32;74.19;98438.23;108242;1259;100143;-76